createdAt,value
2019-06-10T00:01:51.377Z,90.40
2019-06-10T00:05:57.655Z,90.50
2019-06-10T00:10:04.502Z,90.40
2019-06-10T00:14:10.724Z,90.50
2019-06-10T00:18:34.106Z,90.60
2019-06-10T00:22:22.328Z,90.70
2019-06-10T00:26:27.284Z,90.50
2019-06-10T00:30:32.160Z,90.80
2019-06-10T00:34:37.328Z,90.80
2019-06-10T00:38:42.210Z,90.70
2019-06-10T00:42:47.093Z,90.80
2019-06-10T00:46:52.105Z,90.70
2019-06-10T00:50:57.975Z,90.80
2019-06-10T00:55:04.592Z,91.00
2019-06-10T00:59:12.749Z,90.80
2019-06-10T01:03:16.179Z,91.00
2019-06-10T01:07:21.875Z,91.00
2019-06-10T01:11:27.753Z,90.90
2019-06-10T01:15:32.809Z,91.20
2019-06-10T01:19:38.001Z,91.10
2019-06-10T01:23:43.050Z,90.90
2019-06-10T01:27:47.990Z,91.10
2019-06-10T01:31:52.800Z,91.10
2019-06-10T01:35:57.789Z,91.70
2019-06-10T01:40:02.643Z,91.60
2019-06-10T01:44:08.449Z,91.50
2019-06-10T01:48:15.272Z,92.20
2019-06-10T01:52:21.183Z,93.10
2019-06-10T01:56:26.677Z,93.10
2019-06-10T02:00:50.640Z,93.00
2019-06-10T02:04:55.493Z,92.80
2019-06-10T02:09:06.388Z,92.70
2019-06-10T02:13:31.983Z,92.60
2019-06-10T02:17:35.982Z,92.40
2019-06-10T02:21:41.688Z,92.40
2019-06-10T02:25:47.312Z,92.20
2019-06-10T02:29:52.145Z,92.30
2019-06-10T02:33:58.212Z,92.30
2019-06-10T02:38:03.617Z,92.20
2019-06-10T02:42:30.143Z,94.00
2019-06-10T02:46:31.266Z,95.90
2019-06-10T02:50:59.850Z,96.70
2019-06-10T02:55:05.958Z,96.70
2019-06-10T02:59:13.223Z,96.50
2019-06-10T03:03:25.696Z,96.10
2019-06-10T03:07:28.632Z,96.00
2019-06-10T03:11:33.468Z,95.90
2019-06-10T03:15:39.674Z,95.60
2019-06-10T03:19:50.369Z,95.20
2019-06-10T03:23:53.128Z,95.20
2019-06-10T03:27:57.881Z,95.70
2019-06-10T03:32:04.967Z,96.10
2019-06-10T03:36:11.995Z,96.20
2019-06-10T03:40:16.711Z,96.40
2019-06-10T03:44:24.820Z,96.30
2019-06-10T03:48:28.438Z,95.90
2019-06-10T03:52:33.414Z,95.60
2019-06-10T03:56:38.288Z,95.50
2019-06-10T04:00:43.207Z,95.50
2019-06-10T04:04:48.315Z,95.50
2019-06-10T04:08:53.142Z,95.60
2019-06-10T04:12:57.960Z,95.60
2019-06-10T04:17:04.044Z,96.70
2019-06-10T04:21:08.923Z,96.40
2019-06-10T04:25:14.249Z,96.40
2019-06-10T04:29:20.013Z,98.20
2019-06-10T04:33:27.653Z,98.20
2019-06-10T04:37:33.104Z,98.10
2019-06-10T04:41:38.251Z,97.50
2019-06-10T04:45:43.908Z,96.50
2019-06-10T04:49:48.634Z,96.20
2019-06-10T04:53:53.800Z,95.90
2019-06-10T04:57:58.655Z,96.50
2019-06-10T05:02:05.601Z,97.00
2019-06-10T05:06:12.243Z,96.30
2019-06-10T05:10:17.008Z,95.80
2019-06-10T05:14:23.986Z,95.30
2019-06-10T05:18:29.078Z,95.20
2019-06-10T05:22:35.136Z,95.00
2019-06-10T05:26:42.610Z,94.90
2019-06-10T05:30:46.881Z,94.80
2019-06-10T05:34:52.804Z,95.10
2019-06-10T05:38:57.972Z,95.60
2019-06-10T05:43:02.713Z,95.00
2019-06-10T05:47:07.690Z,95.20
2019-06-10T05:51:12.617Z,95.30
2019-06-10T05:55:17.481Z,94.70
2019-06-10T05:59:24.323Z,94.10
2019-06-10T06:03:29.937Z,97.70
2019-06-10T06:07:35.731Z,99.10
2019-06-10T06:11:42.830Z,99.50
2019-06-10T06:15:48.516Z,99.00
2019-06-10T06:19:53.540Z,98.60
2019-06-10T06:23:58.809Z,98.20
2019-06-10T06:28:03.680Z,98.00
2019-06-10T06:32:08.568Z,97.50
2019-06-10T06:36:13.937Z,98.70
2019-06-10T06:40:19.000Z,98.30
2019-06-10T06:44:24.004Z,97.80
2019-06-10T06:48:29.951Z,98.50
2019-06-10T06:53:12.607Z,98.80
2019-06-10T06:56:43.744Z,98.70
2019-06-10T07:01:01.346Z,98.30
2019-06-10T07:04:56.153Z,97.80
2019-06-10T07:09:07.734Z,97.20
2019-06-10T07:13:12.759Z,97.40
2019-06-10T07:17:17.199Z,97.40
2019-06-10T07:21:22.801Z,97.70
2019-06-10T07:25:28.992Z,97.10
2019-06-10T07:29:36.759Z,96.00
2019-06-10T07:33:43.042Z,95.80
2019-06-10T07:37:47.046Z,95.20
2019-06-10T07:41:52.915Z,94.80
2019-06-10T07:45:58.026Z,94.70
2019-06-10T07:50:03.117Z,94.60
2019-06-10T07:54:08.248Z,94.30
2019-06-10T07:58:13.089Z,93.80
2019-06-10T08:02:17.950Z,92.80
2019-06-10T08:06:23.268Z,92.30
2019-06-10T08:10:28.066Z,92.10
2019-06-10T08:14:33.149Z,91.80
2019-06-10T08:18:49.187Z,91.40
2019-06-10T08:22:54.288Z,91.40
2019-06-10T08:26:53.101Z,91.40
2019-06-10T08:30:58.094Z,91.70
2019-06-10T08:35:03.496Z,91.60
2019-06-10T08:39:12.195Z,91.40
2019-06-10T08:43:15.743Z,91.40
2019-06-10T08:47:22.832Z,91.40
2019-06-10T08:51:27.263Z,92.00
2019-06-10T08:55:33.450Z,91.50
2019-06-10T08:59:40.003Z,91.40
2019-06-10T09:03:49.398Z,91.30
2019-06-10T09:08:02.585Z,91.10
2019-06-10T09:12:07.073Z,91.20
2019-06-10T09:16:18.867Z,90.60
2019-06-10T09:20:22.787Z,89.00
2019-06-10T09:24:26.601Z,89.80
2019-06-10T09:28:32.935Z,88.40
2019-06-10T09:32:37.964Z,88.10
2019-06-10T09:36:47.618Z,89.90
2019-06-10T09:40:59.826Z,88.90
2019-06-10T09:44:58.432Z,87.90
2019-06-10T09:49:05.154Z,88.00
2019-06-10T09:53:12.579Z,87.60
2019-06-10T09:57:16.928Z,86.30
2019-06-10T10:01:24.536Z,89.40
2019-06-10T10:05:28.591Z,86.30
2019-06-10T10:09:36.977Z,88.00
2019-06-10T10:13:44.123Z,87.50
2019-06-10T10:17:49.140Z,89.40
2019-06-10T10:21:58.152Z,88.20
2019-06-10T10:26:03.187Z,87.20
2019-06-10T10:30:08.017Z,87.30
2019-06-10T10:34:13.437Z,85.60
2019-06-10T10:38:18.757Z,85.00
2019-06-10T10:42:23.759Z,83.90
2019-06-10T10:46:28.667Z,81.70
2019-06-10T10:50:34.176Z,81.00
2019-06-10T10:54:39.551Z,79.20
2019-06-10T10:58:46.985Z,79.10
2019-06-10T11:02:51.481Z,78.40
2019-06-10T11:07:00.918Z,80.00
2019-06-10T11:11:05.918Z,78.80
2019-06-10T11:15:13.790Z,77.10
2019-06-10T11:19:18.841Z,76.90
2019-06-10T11:23:23.664Z,78.10
2019-06-10T11:27:28.728Z,78.80
2019-06-10T11:31:33.606Z,77.20
2019-06-10T11:35:38.852Z,78.30
2019-06-10T11:39:44.014Z,78.20
2019-06-10T11:43:48.949Z,80.00
2019-06-10T11:47:55.495Z,80.20
2019-06-10T11:52:00.423Z,80.90
2019-06-10T11:56:05.886Z,80.70
2019-06-10T12:00:16.623Z,78.90
2019-06-10T12:04:18.761Z,79.90
2019-06-10T12:08:23.918Z,78.60
2019-06-10T12:12:29.113Z,78.70
2019-06-10T12:20:42.653Z,78.30
2019-06-10T12:24:50.316Z,77.00
2019-06-10T12:28:58.697Z,78.10
2019-06-10T12:33:05.348Z,76.50
2019-06-10T12:37:12.933Z,75.20
2019-06-10T12:41:15.588Z,75.10
2019-06-10T12:45:23.361Z,77.40
2019-06-10T12:49:28.503Z,75.00
2019-06-10T12:53:34.508Z,73.90
2019-06-10T12:57:39.440Z,72.30
2019-06-10T13:01:45.055Z,71.80
2019-06-10T13:05:53.361Z,71.20
2019-06-10T13:09:59.673Z,70.20
2019-06-10T13:14:06.687Z,70.10
2019-06-10T13:18:18.997Z,71.30
2019-06-10T13:22:18.473Z,71.40
2019-06-10T13:26:23.550Z,71.50
2019-06-10T13:30:28.375Z,71.70
2019-06-10T13:34:33.406Z,70.60
2019-06-10T13:38:38.280Z,68.80
2019-06-10T13:42:43.324Z,68.60
2019-06-10T13:46:48.324Z,64.60
2019-06-10T13:50:53.541Z,63.60
2019-06-10T13:54:58.720Z,59.80
2019-06-10T13:59:05.453Z,54.90
2019-06-10T14:03:15.819Z,53.10
2019-06-10T14:07:17.641Z,51.70
2019-06-10T14:11:27.929Z,51.40
2019-06-10T14:15:29.851Z,50.20
2019-06-10T14:19:35.389Z,50.00
2019-06-10T14:23:42.377Z,49.70
2019-06-10T14:27:47.005Z,50.30
2019-06-10T14:31:53.252Z,50.30
2019-06-10T14:35:59.296Z,51.20
2019-06-10T14:40:07.022Z,48.50
2019-06-10T14:44:16.134Z,47.20
2019-06-10T14:48:18.668Z,47.80
2019-06-10T14:52:23.628Z,47.80
2019-06-10T14:56:28.760Z,47.70
2019-06-10T15:00:33.613Z,47.50
2019-06-10T15:04:38.663Z,47.60
2019-06-10T15:08:44.565Z,47.50
2019-06-10T15:12:49.336Z,48.50
2019-06-10T15:16:54.207Z,49.40
2019-06-10T15:20:59.071Z,51.70
2019-06-10T15:25:04.762Z,53.70
2019-06-10T15:29:09.597Z,54.90
2019-06-10T15:33:16.552Z,56.80
2019-06-10T15:37:23.869Z,56.90
2019-06-10T15:41:28.644Z,57.50
2019-06-10T15:45:33.617Z,58.30
2019-06-10T15:49:38.812Z,59.00
2019-06-10T15:53:44.121Z,64.00
2019-06-10T15:57:48.841Z,75.90
2019-06-10T16:01:53.725Z,89.90
2019-06-10T16:05:58.748Z,92.50
2019-06-10T16:10:04.132Z,94.30
2019-06-10T16:14:10.428Z,94.00
2019-06-10T16:18:16.799Z,95.30
2019-06-10T16:22:24.907Z,97.40
2019-06-10T16:26:30.800Z,99.00
2019-06-10T16:30:35.785Z,99.90
2019-06-10T16:34:41.053Z,99.90
2019-06-10T16:38:45.856Z,99.90
2019-06-10T16:42:53.219Z,99.90
2019-06-10T16:46:57.245Z,99.90
2019-06-10T16:51:03.328Z,99.90
2019-06-10T16:55:09.316Z,99.90
2019-06-10T16:59:14.210Z,99.90
2019-06-10T17:03:22.768Z,99.90
2019-06-10T17:07:26.917Z,99.90
2019-06-10T17:11:32.304Z,99.90
2019-06-10T17:15:37.328Z,99.90
2019-06-10T17:19:42.114Z,99.90
2019-06-10T17:23:46.969Z,99.90
2019-06-10T17:27:52.679Z,99.90
2019-06-10T17:31:57.960Z,99.90
2019-06-10T17:36:03.507Z,99.90
2019-06-10T17:40:09.976Z,99.90
2019-06-10T17:44:15.647Z,99.90
2019-06-10T17:48:23.742Z,99.90
2019-06-10T17:52:28.138Z,99.90
2019-06-10T17:56:36.029Z,99.90
2019-06-10T18:00:42.063Z,99.90
2019-06-10T18:04:47.206Z,99.90
2019-06-10T18:08:52.679Z,99.90
2019-06-10T18:13:10.176Z,99.90
2019-06-10T18:17:04.389Z,99.90
2019-06-10T18:21:09.218Z,99.90
2019-06-10T18:25:14.576Z,99.80
2019-06-10T18:29:19.602Z,99.90
2019-06-10T18:33:27.695Z,99.90
2019-06-10T18:37:34.870Z,99.90
2019-06-10T18:41:41.947Z,99.90
2019-06-10T18:45:49.506Z,99.90
2019-06-10T18:49:55.453Z,99.90
2019-06-10T18:54:01.841Z,99.90
2019-06-10T18:58:07.954Z,99.90
2019-06-10T19:02:13.021Z,99.90
2019-06-10T19:06:18.128Z,99.90
2019-06-10T19:10:23.242Z,99.70
2019-06-10T19:14:32.412Z,99.00
2019-06-10T19:18:38.125Z,98.60
2019-06-10T19:22:44.550Z,98.10
2019-06-10T19:26:52.598Z,98.40
2019-06-10T19:30:58.048Z,99.90
2019-06-10T19:35:07.022Z,99.90
2019-06-10T19:39:13.178Z,99.90
2019-06-10T19:43:18.276Z,99.90
2019-06-10T19:47:23.597Z,99.90
2019-06-10T19:51:29.208Z,99.90
2019-06-10T19:55:35.180Z,99.90
2019-06-10T19:59:58.442Z,99.90
2019-06-10T20:03:48.068Z,99.90
2019-06-10T20:07:53.369Z,99.90
2019-06-10T20:11:58.677Z,99.90
2019-06-10T20:16:04.081Z,99.90
2019-06-10T20:20:09.361Z,99.90
2019-06-10T20:24:15.227Z,99.90
2019-06-10T20:28:22.217Z,99.90
2019-06-10T20:32:26.479Z,99.80
2019-06-10T20:36:33.476Z,99.90
2019-06-10T20:40:38.361Z,99.90
2019-06-10T20:44:45.884Z,99.90
2019-06-10T20:48:51.943Z,99.90
2019-06-10T20:53:10.925Z,99.70
2019-06-10T20:57:04.239Z,99.50
2019-06-10T21:01:09.264Z,99.80
2019-06-10T21:05:14.628Z,99.90
2019-06-10T21:09:22.351Z,99.90
2019-06-10T21:13:27.598Z,99.90
2019-06-10T21:17:34.124Z,99.90
2019-06-10T21:21:40.371Z,99.90
2019-06-10T21:25:50.738Z,99.90
2019-06-10T21:29:55.306Z,99.90
2019-06-10T21:34:02.850Z,99.90
2019-06-10T21:38:07.966Z,99.90
2019-06-10T21:42:13.216Z,99.90
2019-06-10T21:46:18.548Z,99.90
2019-06-10T21:50:23.956Z,99.90
2019-06-10T21:54:29.436Z,99.90
2019-06-10T21:58:35.362Z,99.90
2019-06-10T22:02:42.769Z,99.90
2019-06-10T22:06:47.576Z,99.90
2019-06-10T22:10:55.003Z,99.90
2019-06-10T22:14:59.436Z,99.90
2019-06-10T22:19:04.331Z,99.90
2019-06-10T22:23:09.259Z,99.90
2019-06-10T22:27:14.159Z,99.90
2019-06-10T22:31:22.992Z,99.90
2019-06-10T22:35:25.348Z,99.90
2019-06-10T22:39:32.444Z,99.90
2019-06-10T22:43:36.567Z,99.90
2019-06-10T22:47:42.651Z,99.90
2019-06-10T22:51:48.248Z,99.90
2019-06-10T22:55:54.956Z,99.90
2019-06-10T23:00:02.865Z,99.90
2019-06-10T23:04:06.704Z,99.90
2019-06-10T23:08:12.663Z,99.90
2019-06-10T23:12:18.400Z,99.90
2019-06-10T23:16:23.380Z,99.90
2019-06-10T23:20:28.197Z,99.90
2019-06-10T23:24:33.060Z,99.90
2019-06-10T23:28:37.956Z,99.90
2019-06-10T23:32:42.682Z,99.90
2019-06-10T23:36:47.644Z,99.90
2019-06-10T23:40:52.746Z,99.90
2019-06-10T23:44:59.205Z,99.90
2019-06-10T23:49:04.746Z,99.90
2019-06-10T23:53:12.892Z,99.90
2019-06-10T23:57:16.397Z,99.90
